sensor_id;sensor_type;location;lat;lon;timestamp;P1;durP1;ratioP1;P2;durP2;ratioP2
3985;SDS011;2007;48.750;9.278;2022-08-21T00:00:23;4.70;;;2.53;;
3985;SDS011;2007;48.750;9.278;2022-08-21T00:02:53;8.23;;;3.10;;
3985;SDS011;2007;48.750;9.278;2022-08-21T00:05:29;3.23;;;2.20;;
3985;SDS011;2007;48.750;9.278;2022-08-21T00:07:58;4.47;;;2.60;;
3985;SDS011;2007;48.750;9.278;2022-08-21T00:10:26;3.20;;;2.47;;
3985;SDS011;2007;48.750;9.278;2022-08-21T00:12:54;6.47;;;2.10;;
3985;SDS011;2007;48.750;9.278;2022-08-21T00:15:25;2.60;;;2.00;;
3985;SDS011;2007;48.750;9.278;2022-08-21T00:17:55;2.80;;;2.03;;
3985;SDS011;2007;48.750;9.278;2022-08-21T00:20:23;2.40;;;1.80;;
3985;SDS011;2007;48.750;9.278;2022-08-21T00:22:52;3.87;;;2.10;;
3985;SDS011;2007;48.750;9.278;2022-08-21T00:25:22;4.03;;;2.47;;
3985;SDS011;2007;48.750;9.278;2022-08-21T00:27:51;3.23;;;2.00;;
3985;SDS011;2007;48.750;9.278;2022-08-21T00:30:20;2.60;;;2.40;;
3985;SDS011;2007;48.750;9.278;2022-08-21T00:32:51;4.27;;;2.10;;
3985;SDS011;2007;48.750;9.278;2022-08-21T00:35:21;2.87;;;2.20;;
3985;SDS011;2007;48.750;9.278;2022-08-21T00:37:51;4.83;;;1.77;;
3985;SDS011;2007;48.750;9.278;2022-08-21T00:40:20;3.60;;;2.03;;
3985;SDS011;2007;48.750;9.278;2022-08-21T00:42:51;4.20;;;1.87;;
3985;SDS011;2007;48.750;9.278;2022-08-21T00:45:19;4.97;;;2.50;;
3985;SDS011;2007;48.750;9.278;2022-08-21T00:47:48;3.53;;;1.97;;
3985;SDS011;2007;48.750;9.278;2022-08-21T00:50:20;2.70;;;1.80;;
3985;SDS011;2007;48.750;9.278;2022-08-21T00:52:48;5.30;;;1.90;;
3985;SDS011;2007;48.750;9.278;2022-08-21T00:55:18;2.30;;;1.93;;
3985;SDS011;2007;48.750;9.278;2022-08-21T00:57:49;1.87;;;1.57;;
3985;SDS011;2007;48.750;9.278;2022-08-21T01:00:22;3.70;;;1.90;;
3985;SDS011;2007;48.750;9.278;2022-08-21T01:02:55;2.67;;;1.93;;
3985;SDS011;2007;48.750;9.278;2022-08-21T01:05:23;2.60;;;1.83;;
3985;SDS011;2007;48.750;9.278;2022-08-21T01:07:53;2.43;;;1.80;;
3985;SDS011;2007;48.750;9.278;2022-08-21T01:10:23;2.10;;;1.73;;
3985;SDS011;2007;48.750;9.278;2022-08-21T01:12:51;2.70;;;1.93;;
3985;SDS011;2007;48.750;9.278;2022-08-21T01:15:23;2.43;;;2.03;;
3985;SDS011;2007;48.750;9.278;2022-08-21T01:17:56;2.50;;;2.03;;
3985;SDS011;2007;48.750;9.278;2022-08-21T01:20:24;2.30;;;1.90;;
3985;SDS011;2007;48.750;9.278;2022-08-21T01:22:59;2.90;;;2.20;;
3985;SDS011;2007;48.750;9.278;2022-08-21T01:25:27;1.87;;;1.53;;
3985;SDS011;2007;48.750;9.278;2022-08-21T01:27:56;3.93;;;1.97;;
3985;SDS011;2007;48.750;9.278;2022-08-21T01:30:27;3.47;;;1.90;;
3985;SDS011;2007;48.750;9.278;2022-08-21T01:32:55;2.20;;;1.50;;
3985;SDS011;2007;48.750;9.278;2022-08-21T01:35:24;2.07;;;1.80;;
3985;SDS011;2007;48.750;9.278;2022-08-21T01:37:52;2.00;;;1.50;;
3985;SDS011;2007;48.750;9.278;2022-08-21T01:40:22;2.40;;;1.80;;
3985;SDS011;2007;48.750;9.278;2022-08-21T01:42:50;4.60;;;2.30;;
3985;SDS011;2007;48.750;9.278;2022-08-21T01:45:18;2.30;;;1.40;;
3985;SDS011;2007;48.750;9.278;2022-08-21T01:47:46;2.67;;;2.03;;
3985;SDS011;2007;48.750;9.278;2022-08-21T01:50:17;2.57;;;1.53;;
3985;SDS011;2007;48.750;9.278;2022-08-21T01:52:46;1.90;;;1.57;;
3985;SDS011;2007;48.750;9.278;2022-08-21T01:55:15;3.60;;;2.00;;
3985;SDS011;2007;48.750;9.278;2022-08-21T01:57:46;4.60;;;2.07;;
3985;SDS011;2007;48.750;9.278;2022-08-21T02:00:15;6.30;;;1.83;;
3985;SDS011;2007;48.750;9.278;2022-08-21T02:02:45;2.87;;;1.60;;
3985;SDS011;2007;48.750;9.278;2022-08-21T02:05:13;2.57;;;2.33;;
3985;SDS011;2007;48.750;9.278;2022-08-21T02:07:42;2.00;;;1.50;;
3985;SDS011;2007;48.750;9.278;2022-08-21T02:10:12;1.90;;;1.60;;
3985;SDS011;2007;48.750;9.278;2022-08-21T02:12:43;1.90;;;1.60;;
3985;SDS011;2007;48.750;9.278;2022-08-21T02:15:12;3.40;;;1.83;;
3985;SDS011;2007;48.750;9.278;2022-08-21T02:17:43;2.00;;;1.70;;
3985;SDS011;2007;48.750;9.278;2022-08-21T02:20:15;4.90;;;1.97;;
3985;SDS011;2007;48.750;9.278;2022-08-21T02:22:44;1.80;;;1.50;;
3985;SDS011;2007;48.750;9.278;2022-08-21T02:25:12;2.00;;;1.47;;
3985;SDS011;2007;48.750;9.278;2022-08-21T02:27:40;2.07;;;1.40;;
3985;SDS011;2007;48.750;9.278;2022-08-21T02:30:11;2.93;;;2.10;;
3985;SDS011;2007;48.750;9.278;2022-08-21T02:32:43;2.57;;;1.70;;
3985;SDS011;2007;48.750;9.278;2022-08-21T02:35:11;2.00;;;1.60;;
3985;SDS011;2007;48.750;9.278;2022-08-21T02:37:43;2.37;;;1.43;;
3985;SDS011;2007;48.750;9.278;2022-08-21T02:40:12;3.17;;;1.60;;
3985;SDS011;2007;48.750;9.278;2022-08-21T02:42:41;1.70;;;1.53;;
3985;SDS011;2007;48.750;9.278;2022-08-21T02:45:10;2.70;;;2.13;;
3985;SDS011;2007;48.750;9.278;2022-08-21T02:47:39;2.30;;;1.77;;
3985;SDS011;2007;48.750;9.278;2022-08-21T02:50:13;2.43;;;1.90;;
3985;SDS011;2007;48.750;9.278;2022-08-21T02:52:45;2.70;;;1.70;;
3985;SDS011;2007;48.750;9.278;2022-08-21T02:55:17;3.23;;;1.97;;
3985;SDS011;2007;48.750;9.278;2022-08-21T02:57:46;2.23;;;1.80;;
3985;SDS011;2007;48.750;9.278;2022-08-21T03:00:15;2.80;;;1.60;;
3985;SDS011;2007;48.750;9.278;2022-08-21T03:02:44;2.07;;;1.60;;
3985;SDS011;2007;48.750;9.278;2022-08-21T03:05:13;2.73;;;1.90;;
3985;SDS011;2007;48.750;9.278;2022-08-21T03:07:42;4.53;;;2.10;;
3985;SDS011;2007;48.750;9.278;2022-08-21T03:10:12;2.60;;;1.87;;
3985;SDS011;2007;48.750;9.278;2022-08-21T03:12:41;3.57;;;1.80;;
3985;SDS011;2007;48.750;9.278;2022-08-21T03:15:10;2.10;;;1.60;;
3985;SDS011;2007;48.750;9.278;2022-08-21T03:17:46;2.83;;;1.73;;
3985;SDS011;2007;48.750;9.278;2022-08-21T03:20:15;2.20;;;1.70;;
3985;SDS011;2007;48.750;9.278;2022-08-21T03:22:45;1.90;;;1.40;;
3985;SDS011;2007;48.750;9.278;2022-08-21T03:25:18;4.57;;;2.20;;
3985;SDS011;2007;48.750;9.278;2022-08-21T03:28:06;2.17;;;1.33;;
3985;SDS011;2007;48.750;9.278;2022-08-21T03:30:39;1.90;;;1.60;;
3985;SDS011;2007;48.750;9.278;2022-08-21T03:33:08;2.77;;;1.77;;
3985;SDS011;2007;48.750;9.278;2022-08-21T03:35:41;2.40;;;1.87;;
3985;SDS011;2007;48.750;9.278;2022-08-21T03:38:10;3.07;;;1.80;;
3985;SDS011;2007;48.750;9.278;2022-08-21T03:40:39;2.03;;;1.73;;
3985;SDS011;2007;48.750;9.278;2022-08-21T03:43:08;2.10;;;1.53;;
3985;SDS011;2007;48.750;9.278;2022-08-21T03:45:36;2.20;;;1.60;;
3985;SDS011;2007;48.750;9.278;2022-08-21T03:48:06;2.30;;;1.60;;
3985;SDS011;2007;48.750;9.278;2022-08-21T03:50:39;3.53;;;1.60;;
3985;SDS011;2007;48.750;9.278;2022-08-21T03:53:10;2.00;;;1.60;;
3985;SDS011;2007;48.750;9.278;2022-08-21T03:55:43;2.47;;;1.70;;
3985;SDS011;2007;48.750;9.278;2022-08-21T03:58:12;3.97;;;1.70;;
3985;SDS011;2007;48.750;9.278;2022-08-21T04:00:42;2.70;;;1.87;;
3985;SDS011;2007;48.750;9.278;2022-08-21T04:03:12;1.90;;;1.37;;
3985;SDS011;2007;48.750;9.278;2022-08-21T04:05:40;1.83;;;1.30;;
3985;SDS011;2007;48.750;9.278;2022-08-21T04:08:08;2.00;;;1.60;;
3985;SDS011;2007;48.750;9.278;2022-08-21T04:10:36;2.07;;;1.40;;
3985;SDS011;2007;48.750;9.278;2022-08-21T04:13:05;1.90;;;1.47;;
3985;SDS011;2007;48.750;9.278;2022-08-21T04:15:35;2.20;;;1.40;;
3985;SDS011;2007;48.750;9.278;2022-08-21T04:18:03;4.27;;;1.60;;
3985;SDS011;2007;48.750;9.278;2022-08-21T04:20:34;2.10;;;1.40;;
3985;SDS011;2007;48.750;9.278;2022-08-21T04:23:02;2.43;;;1.57;;
3985;SDS011;2007;48.750;9.278;2022-08-21T04:25:30;2.57;;;1.50;;
3985;SDS011;2007;48.750;9.278;2022-08-21T04:27:59;2.10;;;1.60;;
3985;SDS011;2007;48.750;9.278;2022-08-21T04:30:27;3.37;;;1.70;;
3985;SDS011;2007;48.750;9.278;2022-08-21T04:32:56;3.53;;;1.30;;
3985;SDS011;2007;48.750;9.278;2022-08-21T04:35:26;2.00;;;1.40;;
3985;SDS011;2007;48.750;9.278;2022-08-21T04:37:56;2.87;;;1.40;;
3985;SDS011;2007;48.750;9.278;2022-08-21T04:40:25;2.17;;;1.67;;
3985;SDS011;2007;48.750;9.278;2022-08-21T04:42:57;1.70;;;1.20;;
3985;SDS011;2007;48.750;9.278;2022-08-21T04:45:29;2.20;;;1.53;;
3985;SDS011;2007;48.750;9.278;2022-08-21T04:47:59;2.00;;;1.60;;
3985;SDS011;2007;48.750;9.278;2022-08-21T04:50:29;1.93;;;1.30;;
3985;SDS011;2007;48.750;9.278;2022-08-21T04:53:04;1.90;;;1.40;;
3985;SDS011;2007;48.750;9.278;2022-08-21T04:55:34;1.90;;;1.30;;
3985;SDS011;2007;48.750;9.278;2022-08-21T04:58:04;1.83;;;1.40;;
3985;SDS011;2007;48.750;9.278;2022-08-21T05:00:32;1.80;;;1.30;;
3985;SDS011;2007;48.750;9.278;2022-08-21T05:03:00;2.83;;;1.53;;
3985;SDS011;2007;48.750;9.278;2022-08-21T05:05:30;1.80;;;1.40;;
3985;SDS011;2007;48.750;9.278;2022-08-21T05:07:59;3.23;;;1.40;;
3985;SDS011;2007;48.750;9.278;2022-08-21T05:10:31;1.87;;;1.27;;
3985;SDS011;2007;48.750;9.278;2022-08-21T05:12:59;2.57;;;1.80;;
3985;SDS011;2007;48.750;9.278;2022-08-21T05:15:27;2.53;;;1.50;;
3985;SDS011;2007;48.750;9.278;2022-08-21T05:17:56;1.90;;;1.10;;
3985;SDS011;2007;48.750;9.278;2022-08-21T05:20:27;1.70;;;1.20;;
3985;SDS011;2007;48.750;9.278;2022-08-21T05:22:55;2.47;;;1.30;;
3985;SDS011;2007;48.750;9.278;2022-08-21T05:25:24;1.97;;;1.73;;
3985;SDS011;2007;48.750;9.278;2022-08-21T05:27:54;2.40;;;1.93;;
3985;SDS011;2007;48.750;9.278;2022-08-21T05:30:25;1.80;;;1.30;;
3985;SDS011;2007;48.750;9.278;2022-08-21T05:32:55;2.37;;;1.70;;
3985;SDS011;2007;48.750;9.278;2022-08-21T05:35:25;2.00;;;1.40;;
3985;SDS011;2007;48.750;9.278;2022-08-21T05:37:54;1.77;;;1.23;;
3985;SDS011;2007;48.750;9.278;2022-08-21T05:40:22;1.97;;;1.30;;
3985;SDS011;2007;48.750;9.278;2022-08-21T05:42:51;2.03;;;1.40;;
3985;SDS011;2007;48.750;9.278;2022-08-21T05:45:23;1.97;;;1.57;;
3985;SDS011;2007;48.750;9.278;2022-08-21T05:48:09;2.07;;;1.27;;
3985;SDS011;2007;48.750;9.278;2022-08-21T05:50:38;2.10;;;1.30;;
3985;SDS011;2007;48.750;9.278;2022-08-21T05:53:07;2.00;;;1.50;;
3985;SDS011;2007;48.750;9.278;2022-08-21T05:55:36;2.17;;;1.23;;
3985;SDS011;2007;48.750;9.278;2022-08-21T05:58:11;1.90;;;1.40;;
3985;SDS011;2007;48.750;9.278;2022-08-21T06:00:40;2.30;;;1.40;;
3985;SDS011;2007;48.750;9.278;2022-08-21T06:03:12;2.10;;;1.50;;
3985;SDS011;2007;48.750;9.278;2022-08-21T06:05:43;1.80;;;1.20;;
3985;SDS011;2007;48.750;9.278;2022-08-21T06:08:11;2.10;;;1.27;;
3985;SDS011;2007;48.750;9.278;2022-08-21T06:10:39;1.70;;;1.20;;
3985;SDS011;2007;48.750;9.278;2022-08-21T06:13:07;1.60;;;1.20;;
3985;SDS011;2007;48.750;9.278;2022-08-21T06:15:35;2.13;;;1.60;;
3985;SDS011;2007;48.750;9.278;2022-08-21T06:18:05;1.80;;;1.43;;
3985;SDS011;2007;48.750;9.278;2022-08-21T06:20:33;1.90;;;1.20;;
3985;SDS011;2007;48.750;9.278;2022-08-21T06:23:01;2.10;;;1.20;;
3985;SDS011;2007;48.750;9.278;2022-08-21T06:25:30;1.50;;;1.10;;
3985;SDS011;2007;48.750;9.278;2022-08-21T06:28:01;2.20;;;1.40;;
3985;SDS011;2007;48.750;9.278;2022-08-21T06:30:31;2.13;;;1.60;;
3985;SDS011;2007;48.750;9.278;2022-08-21T06:32:59;2.13;;;1.13;;
3985;SDS011;2007;48.750;9.278;2022-08-21T06:35:29;1.90;;;1.30;;
3985;SDS011;2007;48.750;9.278;2022-08-21T06:37:57;3.77;;;1.70;;
3985;SDS011;2007;48.750;9.278;2022-08-21T06:40:25;1.67;;;1.20;;
3985;SDS011;2007;48.750;9.278;2022-08-21T06:42:55;2.00;;;1.50;;
3985;SDS011;2007;48.750;9.278;2022-08-21T06:45:24;1.70;;;1.17;;
3985;SDS011;2007;48.750;9.278;2022-08-21T06:47:57;2.30;;;1.50;;
3985;SDS011;2007;48.750;9.278;2022-08-21T06:50:25;2.10;;;1.20;;
3985;SDS011;2007;48.750;9.278;2022-08-21T06:53:02;1.90;;;1.30;;
3985;SDS011;2007;48.750;9.278;2022-08-21T06:55:33;1.80;;;1.20;;
3985;SDS011;2007;48.750;9.278;2022-08-21T06:58:01;1.80;;;1.50;;
3985;SDS011;2007;48.750;9.278;2022-08-21T07:00:29;2.43;;;1.10;;
3985;SDS011;2007;48.750;9.278;2022-08-21T07:02:57;1.70;;;1.07;;
3985;SDS011;2007;48.750;9.278;2022-08-21T07:05:26;2.73;;;1.30;;
3985;SDS011;2007;48.750;9.278;2022-08-21T07:07:54;1.70;;;1.30;;
3985;SDS011;2007;48.750;9.278;2022-08-21T07:10:24;1.63;;;1.00;;
3985;SDS011;2007;48.750;9.278;2022-08-21T07:12:53;1.90;;;1.13;;
3985;SDS011;2007;48.750;9.278;2022-08-21T07:15:26;1.90;;;1.10;;
3985;SDS011;2007;48.750;9.278;2022-08-21T07:17:56;1.87;;;1.20;;
3985;SDS011;2007;48.750;9.278;2022-08-21T07:20:24;1.70;;;1.20;;
3985;SDS011;2007;48.750;9.278;2022-08-21T07:22:52;1.60;;;1.00;;
3985;SDS011;2007;48.750;9.278;2022-08-21T07:25:21;1.80;;;1.20;;
3985;SDS011;2007;48.750;9.278;2022-08-21T07:27:50;2.73;;;1.67;;
3985;SDS011;2007;48.750;9.278;2022-08-21T07:30:18;1.80;;;1.10;;
3985;SDS011;2007;48.750;9.278;2022-08-21T07:32:46;2.30;;;1.20;;
3985;SDS011;2007;48.750;9.278;2022-08-21T07:35:16;1.50;;;0.97;;
3985;SDS011;2007;48.750;9.278;2022-08-21T07:37:45;1.60;;;1.07;;
3985;SDS011;2007;48.750;9.278;2022-08-21T07:40:13;2.43;;;1.37;;
3985;SDS011;2007;48.750;9.278;2022-08-21T07:42:42;2.10;;;0.93;;
3985;SDS011;2007;48.750;9.278;2022-08-21T07:45:13;1.90;;;1.50;;
3985;SDS011;2007;48.750;9.278;2022-08-21T07:47:41;1.70;;;1.10;;
3985;SDS011;2007;48.750;9.278;2022-08-21T07:50:10;1.60;;;1.07;;
3985;SDS011;2007;48.750;9.278;2022-08-21T07:52:39;1.80;;;1.00;;
3985;SDS011;2007;48.750;9.278;2022-08-21T07:55:08;1.80;;;1.27;;
3985;SDS011;2007;48.750;9.278;2022-08-21T07:57:38;3.13;;;1.20;;
3985;SDS011;2007;48.750;9.278;2022-08-21T08:00:08;1.70;;;1.30;;
3985;SDS011;2007;48.750;9.278;2022-08-21T08:02:39;2.17;;;1.40;;
3985;SDS011;2007;48.750;9.278;2022-08-21T08:05:08;1.80;;;1.10;;
3985;SDS011;2007;48.750;9.278;2022-08-21T08:07:38;2.57;;;1.07;;
3985;SDS011;2007;48.750;9.278;2022-08-21T08:10:06;1.70;;;1.00;;
3985;SDS011;2007;48.750;9.278;2022-08-21T08:12:37;1.93;;;1.23;;
3985;SDS011;2007;48.750;9.278;2022-08-21T08:15:08;1.77;;;1.10;;
3985;SDS011;2007;48.750;9.278;2022-08-21T08:17:39;1.80;;;1.00;;
3985;SDS011;2007;48.750;9.278;2022-08-21T08:20:09;1.77;;;1.33;;
3985;SDS011;2007;48.750;9.278;2022-08-21T08:22:38;1.83;;;1.40;;
3985;SDS011;2007;48.750;9.278;2022-08-21T08:25:08;1.60;;;0.90;;
3985;SDS011;2007;48.750;9.278;2022-08-21T08:27:38;1.70;;;1.30;;
3985;SDS011;2007;48.750;9.278;2022-08-21T08:30:07;1.57;;;1.17;;
3985;SDS011;2007;48.750;9.278;2022-08-21T08:32:36;1.50;;;1.00;;
3985;SDS011;2007;48.750;9.278;2022-08-21T08:35:06;1.93;;;1.10;;
3985;SDS011;2007;48.750;9.278;2022-08-21T08:37:35;1.60;;;1.10;;
3985;SDS011;2007;48.750;9.278;2022-08-21T08:40:09;1.57;;;1.07;;
3985;SDS011;2007;48.750;9.278;2022-08-21T08:42:38;1.50;;;1.10;;
3985;SDS011;2007;48.750;9.278;2022-08-21T08:45:07;1.70;;;1.00;;
3985;SDS011;2007;48.750;9.278;2022-08-21T08:47:38;1.50;;;1.00;;
3985;SDS011;2007;48.750;9.278;2022-08-21T08:50:11;1.70;;;1.00;;
3985;SDS011;2007;48.750;9.278;2022-08-21T08:52:45;1.80;;;1.20;;
3985;SDS011;2007;48.750;9.278;2022-08-21T08:55:17;1.50;;;0.97;;
3985;SDS011;2007;48.750;9.278;2022-08-21T08:57:52;1.70;;;1.07;;
3985;SDS011;2007;48.750;9.278;2022-08-21T09:00:22;1.60;;;0.90;;
3985;SDS011;2007;48.750;9.278;2022-08-21T09:02:51;1.60;;;1.00;;
3985;SDS011;2007;48.750;9.278;2022-08-21T09:05:24;1.70;;;1.20;;
3985;SDS011;2007;48.750;9.278;2022-08-21T09:08:09;1.70;;;1.30;;
3985;SDS011;2007;48.750;9.278;2022-08-21T09:10:55;1.80;;;1.20;;
3985;SDS011;2007;48.750;9.278;2022-08-21T09:13:31;1.90;;;1.17;;
3985;SDS011;2007;48.750;9.278;2022-08-21T09:16:09;1.80;;;1.20;;
3985;SDS011;2007;48.750;9.278;2022-08-21T09:18:48;1.63;;;1.00;;
3985;SDS011;2007;48.750;9.278;2022-08-21T09:21:35;2.07;;;1.33;;
3985;SDS011;2007;48.750;9.278;2022-08-21T09:24:17;2.37;;;1.13;;
3985;SDS011;2007;48.750;9.278;2022-08-21T09:26:57;1.70;;;1.07;;
3985;SDS011;2007;48.750;9.278;2022-08-21T09:29:33;2.27;;;1.07;;
3985;SDS011;2007;48.750;9.278;2022-08-21T09:32:16;1.40;;;0.80;;
3985;SDS011;2007;48.750;9.278;2022-08-21T09:34:55;1.70;;;1.10;;
3985;SDS011;2007;48.750;9.278;2022-08-21T09:37:27;1.87;;;1.30;;
3985;SDS011;2007;48.750;9.278;2022-08-21T09:39:57;2.30;;;1.20;;
3985;SDS011;2007;48.750;9.278;2022-08-21T09:42:26;3.03;;;1.50;;
3985;SDS011;2007;48.750;9.278;2022-08-21T09:45:06;2.00;;;1.23;;
3985;SDS011;2007;48.750;9.278;2022-08-21T09:47:37;1.60;;;1.10;;
3985;SDS011;2007;48.750;9.278;2022-08-21T09:50:10;1.60;;;1.00;;
3985;SDS011;2007;48.750;9.278;2022-08-21T09:52:46;1.60;;;1.00;;
3985;SDS011;2007;48.750;9.278;2022-08-21T09:55:23;1.80;;;1.33;;
3985;SDS011;2007;48.750;9.278;2022-08-21T09:58:16;1.60;;;1.40;;
3985;SDS011;2007;48.750;9.278;2022-08-21T10:00:47;2.00;;;1.40;;
3985;SDS011;2007;48.750;9.278;2022-08-21T10:03:25;1.73;;;1.10;;
3985;SDS011;2007;48.750;9.278;2022-08-21T10:05:54;1.80;;;1.00;;
3985;SDS011;2007;48.750;9.278;2022-08-21T10:08:27;1.60;;;1.00;;
3985;SDS011;2007;48.750;9.278;2022-08-21T10:10:57;1.67;;;1.03;;
3985;SDS011;2007;48.750;9.278;2022-08-21T10:13:34;1.50;;;1.00;;
3985;SDS011;2007;48.750;9.278;2022-08-21T10:16:15;1.60;;;1.10;;
3985;SDS011;2007;48.750;9.278;2022-08-21T10:18:56;1.70;;;1.10;;
3985;SDS011;2007;48.750;9.278;2022-08-21T10:21:38;1.60;;;1.00;;
3985;SDS011;2007;48.750;9.278;2022-08-21T10:24:12;1.60;;;0.90;;
3985;SDS011;2007;48.750;9.278;2022-08-21T10:26:57;1.70;;;1.10;;
3985;SDS011;2007;48.750;9.278;2022-08-21T10:29:38;2.43;;;0.83;;
3985;SDS011;2007;48.750;9.278;2022-08-21T10:32:15;1.70;;;1.07;;
3985;SDS011;2007;48.750;9.278;2022-08-21T10:35:06;1.60;;;0.90;;
3985;SDS011;2007;48.750;9.278;2022-08-21T10:37:43;1.80;;;1.23;;
3985;SDS011;2007;48.750;9.278;2022-08-21T10:40:24;2.17;;;1.27;;
3985;SDS011;2007;48.750;9.278;2022-08-21T10:43:00;1.57;;;0.87;;
3985;SDS011;2007;48.750;9.278;2022-08-21T10:45:38;1.70;;;1.17;;
3985;SDS011;2007;48.750;9.278;2022-08-21T10:48:14;1.60;;;1.03;;
3985;SDS011;2007;48.750;9.278;2022-08-21T10:50:49;1.63;;;1.20;;
3985;SDS011;2007;48.750;9.278;2022-08-21T10:53:27;1.67;;;1.10;;
3985;SDS011;2007;48.750;9.278;2022-08-21T10:56:10;1.50;;;0.87;;
3985;SDS011;2007;48.750;9.278;2022-08-21T10:58:45;2.07;;;1.00;;
3985;SDS011;2007;48.750;9.278;2022-08-21T11:01:18;1.70;;;1.00;;
3985;SDS011;2007;48.750;9.278;2022-08-21T11:03:54;1.70;;;1.00;;
3985;SDS011;2007;48.750;9.278;2022-08-21T11:06:37;1.70;;;0.93;;
3985;SDS011;2007;48.750;9.278;2022-08-21T11:09:11;2.17;;;0.90;;
3985;SDS011;2007;48.750;9.278;2022-08-21T11:11:44;1.60;;;1.10;;
3985;SDS011;2007;48.750;9.278;2022-08-21T11:14:30;1.50;;;0.83;;
3985;SDS011;2007;48.750;9.278;2022-08-21T11:17:15;1.60;;;0.90;;
3985;SDS011;2007;48.750;9.278;2022-08-21T11:19:48;1.60;;;1.00;;
3985;SDS011;2007;48.750;9.278;2022-08-21T11:22:21;1.63;;;0.90;;
3985;SDS011;2007;48.750;9.278;2022-08-21T11:24:54;1.50;;;1.10;;
3985;SDS011;2007;48.750;9.278;2022-08-21T11:27:30;1.70;;;1.20;;
3985;SDS011;2007;48.750;9.278;2022-08-21T11:30:04;2.10;;;1.10;;
3985;SDS011;2007;48.750;9.278;2022-08-21T11:32:41;1.83;;;1.30;;
3985;SDS011;2007;48.750;9.278;2022-08-21T11:35:27;1.53;;;0.90;;
3985;SDS011;2007;48.750;9.278;2022-08-21T11:38:04;1.60;;;0.87;;
3985;SDS011;2007;48.750;9.278;2022-08-21T11:40:50;2.20;;;1.50;;
3985;SDS011;2007;48.750;9.278;2022-08-21T11:43:36;1.60;;;1.20;;
3985;SDS011;2007;48.750;9.278;2022-08-21T11:46:10;1.63;;;1.00;;
3985;SDS011;2007;48.750;9.278;2022-08-21T11:48:46;1.60;;;1.03;;
3985;SDS011;2007;48.750;9.278;2022-08-21T11:51:26;1.40;;;0.90;;
3985;SDS011;2007;48.750;9.278;2022-08-21T11:54:01;1.70;;;1.20;;
3985;SDS011;2007;48.750;9.278;2022-08-21T11:56:34;1.60;;;1.00;;
3985;SDS011;2007;48.750;9.278;2022-08-21T11:59:10;1.77;;;1.20;;
3985;SDS011;2007;48.750;9.278;2022-08-21T12:01:46;1.87;;;1.40;;
3985;SDS011;2007;48.750;9.278;2022-08-21T12:04:18;1.60;;;1.10;;
3985;SDS011;2007;48.750;9.278;2022-08-21T12:06:52;1.60;;;1.00;;
3985;SDS011;2007;48.750;9.278;2022-08-21T12:09:30;1.80;;;1.17;;
3985;SDS011;2007;48.750;9.278;2022-08-21T12:12:03;1.83;;;1.00;;
3985;SDS011;2007;48.750;9.278;2022-08-21T12:14:39;1.70;;;1.07;;
3985;SDS011;2007;48.750;9.278;2022-08-21T12:17:17;1.80;;;1.17;;
3985;SDS011;2007;48.750;9.278;2022-08-21T12:19:56;1.70;;;1.03;;
3985;SDS011;2007;48.750;9.278;2022-08-21T12:22:35;1.60;;;0.90;;
3985;SDS011;2007;48.750;9.278;2022-08-21T12:25:08;1.70;;;1.00;;
3985;SDS011;2007;48.750;9.278;2022-08-21T12:27:44;1.60;;;1.03;;
3985;SDS011;2007;48.750;9.278;2022-08-21T12:30:22;1.67;;;1.00;;
3985;SDS011;2007;48.750;9.278;2022-08-21T12:33:01;1.70;;;1.20;;
3985;SDS011;2007;48.750;9.278;2022-08-21T12:35:32;1.73;;;1.17;;
3985;SDS011;2007;48.750;9.278;2022-08-21T12:38:06;1.60;;;1.00;;
3985;SDS011;2007;48.750;9.278;2022-08-21T12:40:46;1.60;;;1.10;;
3985;SDS011;2007;48.750;9.278;2022-08-21T12:43:19;1.90;;;1.10;;
3985;SDS011;2007;48.750;9.278;2022-08-21T12:45:51;1.63;;;1.27;;
3985;SDS011;2007;48.750;9.278;2022-08-21T12:48:21;2.10;;;1.60;;
3985;SDS011;2007;48.750;9.278;2022-08-21T12:50:54;1.60;;;1.03;;
3985;SDS011;2007;48.750;9.278;2022-08-21T12:53:25;1.60;;;1.00;;
3985;SDS011;2007;48.750;9.278;2022-08-21T12:55:57;1.70;;;1.30;;
3985;SDS011;2007;48.750;9.278;2022-08-21T12:58:30;1.70;;;1.07;;
3985;SDS011;2007;48.750;9.278;2022-08-21T13:01:04;1.90;;;1.03;;
3985;SDS011;2007;48.750;9.278;2022-08-21T13:03:34;1.60;;;1.10;;
3985;SDS011;2007;48.750;9.278;2022-08-21T13:06:04;1.80;;;1.00;;
3985;SDS011;2007;48.750;9.278;2022-08-21T13:08:33;1.70;;;1.03;;
3985;SDS011;2007;48.750;9.278;2022-08-21T13:11:07;1.90;;;1.30;;
3985;SDS011;2007;48.750;9.278;2022-08-21T13:13:40;2.13;;;1.20;;
3985;SDS011;2007;48.750;9.278;2022-08-21T13:16:20;1.90;;;1.00;;
3985;SDS011;2007;48.750;9.278;2022-08-21T13:18:52;1.63;;;1.07;;
3985;SDS011;2007;48.750;9.278;2022-08-21T13:21:27;2.33;;;1.50;;
3985;SDS011;2007;48.750;9.278;2022-08-21T13:27:17;2.00;;;1.53;;
3985;SDS011;2007;48.750;9.278;2022-08-21T13:29:47;1.80;;;0.90;;
3985;SDS011;2007;48.750;9.278;2022-08-21T13:32:21;1.60;;;1.00;;
3985;SDS011;2007;48.750;9.278;2022-08-21T13:34:52;1.60;;;1.07;;
3985;SDS011;2007;48.750;9.278;2022-08-21T13:37:20;2.10;;;1.20;;
3985;SDS011;2007;48.750;9.278;2022-08-21T13:39:51;1.60;;;1.00;;
3985;SDS011;2007;48.750;9.278;2022-08-21T13:42:19;1.70;;;1.00;;
3985;SDS011;2007;48.750;9.278;2022-08-21T13:44:50;1.70;;;1.00;;
3985;SDS011;2007;48.750;9.278;2022-08-21T13:47:22;1.97;;;1.40;;
3985;SDS011;2007;48.750;9.278;2022-08-21T13:49:52;1.80;;;1.07;;
3985;SDS011;2007;48.750;9.278;2022-08-21T13:52:25;1.50;;;0.80;;
3985;SDS011;2007;48.750;9.278;2022-08-21T13:54:55;1.60;;;1.00;;
3985;SDS011;2007;48.750;9.278;2022-08-21T13:57:26;1.90;;;1.17;;
3985;SDS011;2007;48.750;9.278;2022-08-21T14:00:12;1.90;;;1.20;;
3985;SDS011;2007;48.750;9.278;2022-08-21T14:02:45;2.00;;;1.20;;
3985;SDS011;2007;48.750;9.278;2022-08-21T14:05:19;1.67;;;0.90;;
3985;SDS011;2007;48.750;9.278;2022-08-21T14:07:49;1.83;;;1.20;;
3985;SDS011;2007;48.750;9.278;2022-08-21T14:10:21;1.90;;;1.27;;
3985;SDS011;2007;48.750;9.278;2022-08-21T14:12:56;2.00;;;1.33;;
3985;SDS011;2007;48.750;9.278;2022-08-21T14:15:28;2.00;;;1.40;;
3985;SDS011;2007;48.750;9.278;2022-08-21T14:18:07;2.37;;;0.97;;
3985;SDS011;2007;48.750;9.278;2022-08-21T14:20:40;1.83;;;1.37;;
3985;SDS011;2007;48.750;9.278;2022-08-21T14:23:08;2.50;;;1.43;;
3985;SDS011;2007;48.750;9.278;2022-08-21T14:25:38;1.90;;;1.43;;
3985;SDS011;2007;48.750;9.278;2022-08-21T14:28:15;1.90;;;1.37;;
3985;SDS011;2007;48.750;9.278;2022-08-21T14:30:52;1.50;;;0.90;;
3985;SDS011;2007;48.750;9.278;2022-08-21T14:33:25;2.13;;;1.17;;
3985;SDS011;2007;48.750;9.278;2022-08-21T14:35:55;1.93;;;1.17;;
3985;SDS011;2007;48.750;9.278;2022-08-21T14:38:24;1.50;;;0.87;;
3985;SDS011;2007;48.750;9.278;2022-08-21T14:40:54;1.73;;;1.17;;
3985;SDS011;2007;48.750;9.278;2022-08-21T14:43:24;2.17;;;1.20;;
3985;SDS011;2007;48.750;9.278;2022-08-21T14:45:53;1.40;;;0.90;;
3985;SDS011;2007;48.750;9.278;2022-08-21T14:48:23;1.80;;;1.23;;
3985;SDS011;2007;48.750;9.278;2022-08-21T14:50:51;1.60;;;1.10;;
3985;SDS011;2007;48.750;9.278;2022-08-21T14:53:25;1.77;;;1.20;;
3985;SDS011;2007;48.750;9.278;2022-08-21T14:55:53;1.80;;;1.23;;
3985;SDS011;2007;48.750;9.278;2022-08-21T14:58:34;1.60;;;0.93;;
3985;SDS011;2007;48.750;9.278;2022-08-21T15:01:04;2.10;;;1.30;;
3985;SDS011;2007;48.750;9.278;2022-08-21T15:03:36;1.50;;;1.00;;
3985;SDS011;2007;48.750;9.278;2022-08-21T15:06:05;1.77;;;0.93;;
3985;SDS011;2007;48.750;9.278;2022-08-21T15:08:33;1.90;;;1.20;;
3985;SDS011;2007;48.750;9.278;2022-08-21T15:11:02;1.70;;;1.10;;
3985;SDS011;2007;48.750;9.278;2022-08-21T15:13:38;1.70;;;1.00;;
3985;SDS011;2007;48.750;9.278;2022-08-21T15:16:07;1.70;;;0.93;;
3985;SDS011;2007;48.750;9.278;2022-08-21T15:18:39;1.50;;;0.90;;
3985;SDS011;2007;48.750;9.278;2022-08-21T15:21:08;1.77;;;1.17;;
3985;SDS011;2007;48.750;9.278;2022-08-21T15:23:36;1.70;;;1.17;;
3985;SDS011;2007;48.750;9.278;2022-08-21T15:26:08;1.60;;;1.00;;
3985;SDS011;2007;48.750;9.278;2022-08-21T15:28:36;1.50;;;0.90;;
3985;SDS011;2007;48.750;9.278;2022-08-21T15:31:05;1.43;;;0.80;;
3985;SDS011;2007;48.750;9.278;2022-08-21T15:33:34;1.60;;;1.07;;
3985;SDS011;2007;48.750;9.278;2022-08-21T15:36:03;1.60;;;1.10;;
3985;SDS011;2007;48.750;9.278;2022-08-21T15:38:31;1.50;;;1.00;;
3985;SDS011;2007;48.750;9.278;2022-08-21T15:41:01;1.60;;;0.93;;
3985;SDS011;2007;48.750;9.278;2022-08-21T15:43:30;2.00;;;1.20;;
3985;SDS011;2007;48.750;9.278;2022-08-21T15:46:05;2.00;;;0.97;;